Latest Weather Observations for Ouse

IDT60801

Issued at 7:35 am EST Sunday 21 September 2014 (issued every 30 minutes, with the page automatically refreshed every 10 minutes)

About weather observations | Map of weather stations | Latest weather observations for TAS | Other Formats
Station Details ID: 095048 Name: OUSE FIRE STATION Lat: -42.48 Lon: 146.71 Height: 90.0 m
Data from the previous 72 hours. | See also: Recent months at Ouse
Date/Time
EST
Temp
°C
App
Temp
°C
Dew
Point
Rel
Hum
%
Delta-T
°C
Wind Press
QNH
hPa
Press
MSL
hPa
Rain
since 9 am
mm
Dir
 
Spd
km/h
Gust
km/h
Spd
kts
Gust
kts
21/07:30am 11.8 8.7 7.1 73 2.2 NW 13 20 7 11 1026.8 1027.0 0.0
21/07:00am 11.0 7.1 6.9 76 1.9 N 17 22 9 12 1026.4 1026.6 0.0
21/06:30am 10.5 6.1 6.5 76 1.9 NNW 19 26 10 14 1026.2 1026.4 0.0
21/06:00am 10.4 6.3 6.4 76 1.9 NNW 17 24 9 13 1026.2 1026.4 0.0
21/05:30am 10.2 5.4 5.8 74 2.0 NNW 20 28 11 15 1025.8 1026.0 0.0
21/05:00am 10.5 6.6 5.5 71 2.3 N 15 24 8 13 1025.9 1026.1 0.0
21/04:30am 10.3 6.4 5.3 71 2.3 N 15 22 8 12 1025.9 1026.1 0.0
21/04:00am 10.3 6.3 5.1 70 2.4 NNW 15 26 8 14 1026.0 1026.2 0.0
21/03:30am 10.2 6.2 5.0 70 2.4 NNW 15 22 8 12 1026.1 1026.3 0.0
21/03:00am 10.1 6.5 4.9 70 2.3 N 13 22 7 12 1026.2 1026.4 0.0
21/02:30am 10.2 5.4 4.8 69 2.4 NW 19 24 10 13 1026.2 1026.4 0.0
21/02:00am 9.1 5.1 5.1 76 1.8 NNW 15 22 8 12 1026.5 1026.7 0.0
21/01:30am 9.1 5.1 4.9 75 1.9 NNW 15 20 8 11 1026.6 1026.8 0.0
21/01:00am 8.5 4.5 5.1 79 1.5 NNW 15 20 8 11 1026.7 1026.9 0.0
21/12:30am 8.2 4.9 4.8 79 1.5 N 11 17 6 9 1026.6 1026.8 0.0
21/12:00am 9.4 5.8 4.8 73 2.1 NW 13 20 7 11 1026.8 1027.0 0.0
 
Date/Time
EST
Temp
°C
App
Temp
°C
Dew
Point
Rel
Hum
%
Delta-T
°C
Wind Press
QNH
hPa
Press
MSL
hPa
Rain
since 9 am
mm
Dir
 
Spd
km/h
Gust
km/h
Spd
kts
Gust
kts
20/11:30pm 10.5 6.9 4.9 68 2.5 NW 13 24 7 13 1027.1 1027.3 0.0
20/11:00pm 10.3 7.1 5.1 70 2.4 WNW 11 15 6 8 1027.2 1027.4 0.0
20/10:30pm 9.6 6.5 5.4 75 1.9 NW 11 19 6 10 1026.9 1027.1 0.0
20/10:00pm 9.3 6.7 6.0 80 1.5 NNW 9 20 5 11 1027.0 1027.2 0.0
20/09:30pm 8.9 6.3 6.0 82 1.3 N 9 13 5 7 1027.1 1027.3 0.0
20/09:00pm 9.2 6.1 5.6 78 1.6 N 11 17 6 9 1027.0 1027.2 0.0
20/08:30pm 9.2 6.4 5.2 76 1.8 NNW 9 15 5 8 1026.9 1027.1 0.0
20/08:00pm 9.3 5.7 5.1 75 1.9 NW 13 17 7 9 1026.8 1027.0 0.0
20/07:30pm 10.0 6.4 5.2 72 2.2 NNW 13 17 7 9 1026.7 1026.9 0.0
20/07:00pm 10.2 5.8 4.6 68 2.5 NW 17 22 9 12 1025.8 1026.0 0.0
20/06:30pm 10.4 6.7 4.5 67 2.7 NW 13 20 7 11 1025.4 1025.6 0.0
20/06:00pm 11.2 6.7 4.2 62 3.1 W 17 28 9 15 1025.8 1026.0 0.0
20/05:30pm 11.5 6.8 5.2 65 2.9 W 19 26 10 14 1025.4 1025.6 0.0
20/05:00pm 12.4 7.1 4.9 60 3.4 W 22 32 12 17 1025.2 1025.4 0.0
20/04:30pm 13.5 8.6 5.2 57 3.9 SW 20 22 11 12 1025.1 1025.3 0.0
20/04:00pm 14.6 9.7 4.9 52 4.5 SW 20 26 11 14 1024.8 1025.0 0.0
20/03:30pm 14.4 9.4 6.3 58 3.9 SW 22 41 12 22 1024.7 1024.9 0.0
20/03:00pm 14.8 10.2 6.6 58 4.0 W 20 39 11 21 1024.3 1024.5 0.0
20/02:30pm 15.6 11.5 6.3 54 4.5 WSW 17 32 9 17 1024.3 1024.5 0.0
20/02:00pm 14.3 9.2 6.2 58 3.9 WSW 22 35 12 19 1024.0 1024.2 0.0
20/01:30pm 14.5 10.4 6.3 58 4.0 WSW 17 26 9 14 1024.0 1024.2 0.0
20/01:00pm 14.6 9.8 5.7 55 4.2 WSW 20 32 11 17 1024.3 1024.5 0.0
20/12:30pm 14.9 9.6 5.1 52 4.6 WSW 22 37 12 20 1024.1 1024.3 0.0
20/12:00pm 15.5 10.2 6.8 56 4.3 W 24 35 13 19 1024.1 1024.3 0.0
20/11:30am 14.6 10.1 6.2 57 4.1 W 19 33 10 18 1024.3 1024.5 0.0
20/11:00am 15.1 9.6 6.1 55 4.3 WSW 24 43 13 23 1024.2 1024.4 0.0
20/10:30am 14.8 9.0 6.1 56 4.2 W 26 35 14 19 1024.0 1024.2 0.0
20/10:00am 14.0 9.1 5.1 55 4.2 WSW 20 32 11 17 1023.9 1024.1 0.0
20/09:30am 13.5 6.8 5.7 59 3.7 W 30 41 16 22 1023.9 1024.1 0.0
20/09:00am 13.3 8.5 5.7 60 3.6 W 20 39 11 21 1023.8 1024.0 0.0
20/08:30am 12.2 7.4 5.6 64 3.1 W 20 28 11 15 1023.5 1023.7 0.0
20/08:00am 11.7 9.6 6.8 72 2.3 NNW 7 11 4 6 1023.4 1023.6 0.0
20/07:30am 10.2 8.4 7.3 82 1.4 N 6 9 3 5 1023.3 1023.5 0.0
20/07:00am 9.0 6.6 7.0 87 0.9 N 9 15 5 8 1023.0 1023.2 0.0
20/06:30am 7.9 5.2 5.5 85 1.1 NW 9 13 5 7 1022.7 1022.9 0.0
20/06:00am 8.6 4.8 5.9 83 1.2 NW 15 20 8 11 1022.5 1022.7 0.0
20/05:30am 9.1 5.0 6.4 83 1.3 WNW 17 20 9 11 1022.0 1022.1 0.0
20/05:00am 9.5 5.1 6.4 81 1.4 WNW 19 24 10 13 1021.5 1021.6 0.0
20/04:30am 9.2 6.5 5.8 79 1.6 NW 9 13 5 7 1021.5 1021.6 0.0
20/04:00am 9.3 6.3 6.2 81 1.4 NW 11 15 6 8 1021.3 1021.4 0.0
20/03:30am 8.1 5.8 5.7 85 1.1 NNW 7 9 4 5 1021.1 1021.2 0.0
20/03:00am 8.5 6.1 5.1 79 1.5 NW 7 11 4 6 1021.0 1021.1 0.0
20/02:30am 10.0 6.9 5.6 74 2.0 W 11 20 6 11 1020.8 1020.9 0.0
20/02:00am 10.4 6.2 5.6 72 2.2 WSW 17 28 9 15 1020.6 1020.7 0.0
20/01:30am 9.3 5.4 5.5 77 1.7 WNW 15 19 8 10 1020.4 1020.5 0.0
20/01:00am 9.6 5.8 5.6 76 1.8 WNW 15 19 8 10 1020.5 1020.6 0.0
20/12:30am 8.8 5.5 6.2 84 1.2 NNW 13 15 7 8 1020.4 1020.5 0.0
20/12:00am 9.3 6.0 6.6 83 1.3 NNW 13 19 7 10 1020.2 1020.3 0.0
 
Date/Time
EST
Temp
°C
App
Temp
°C
Dew
Point
Rel
Hum
%
Delta-T
°C
Wind Press
QNH
hPa
Press
MSL
hPa
Rain
since 9 am
mm
Dir
 
Spd
km/h
Gust
km/h
Spd
kts
Gust
kts
19/11:30pm 9.1 6.2 6.4 83 1.3 N 11 17 6 9 1020.2 1020.3 0.0
19/11:00pm 9.2 5.9 6.5 83 1.3 W 13 17 7 9 1020.1 1020.2 0.0
19/10:30pm 8.6 5.8 6.9 89 0.8 NW 11 15 6 8 1020.1 1020.2 0.0
19/10:00pm 7.6 5.0 5.9 89 0.8 WNW 9 11 5 6 1019.9 1020.0 0.0
19/09:30pm 8.5 6.1 6.8 89 0.8 NW 9 11 5 6 1019.9 1020.0 0.0
19/09:00pm 8.2 6.0 6.0 86 1.0 NW 7 11 4 6 1019.7 1019.8 0.0
19/08:30pm 9.4 7.1 5.9 79 1.6 W 7 11 4 6 1019.5 1019.6 0.0
19/08:00pm 9.2 6.3 6.6 84 1.2 W 11 20 6 11 1019.4 1019.5 0.0
19/07:30pm 9.3 7.3 6.4 82 1.3 NW 6 11 3 6 1018.9 1019.0 0.0
19/07:00pm 10.2 7.7 6.5 78 1.7 WNW 9 17 5 9 1018.7 1018.8 0.0
19/06:30pm 10.7 8.1 5.9 72 2.2 WNW 9 15 5 8 1018.4 1018.5 0.0
19/06:00pm 11.7 7.7 5.1 64 3.0 WSW 15 33 8 18 1018.0 1018.1 0.0
19/05:30pm 12.5 8.5 5.0 60 3.5 WSW 15 24 8 13 1017.8 1017.9 0.0
19/05:00pm 13.7 8.4 5.1 56 4.0 WSW 22 37 12 20 1017.7 1017.8 0.0
19/04:30pm 14.0 9.9 4.3 52 4.5 W 15 24 8 13 1017.5 1017.6 0.0
19/04:00pm 14.3 8.6 5.1 54 4.3 WSW 24 35 13 19 1017.3 1017.4 0.0
19/03:30pm 13.3 6.4 4.7 56 4.0 WSW 30 50 16 27 1017.2 1017.3 0.0
19/03:22pm 13.4 6.4 4.0 53 4.3 WSW 30 50 16 27 1017.0 1017.1 0.0
19/03:00pm 12.9 7.4 6.0 63 3.3 W 24 35 13 19 1016.9 1017.0 0.0
19/02:30pm 13.6 7.9 5.0 56 4.0 SW 24 37 13 20 1016.4 1016.5 0.0
19/02:00pm 13.5 9.1 4.6 55 4.1 SW 17 30 9 16 1016.5 1016.6 0.0
19/01:30pm 13.4 8.0 4.3 54 4.2 SW 22 35 12 19 1017.0 1017.1 0.0
19/01:00pm 13.3 8.3 4.5 55 4.0 WSW 20 35 11 19 1016.9 1017.0 0.0
19/12:30pm 13.8 10.5 6.2 60 3.6 WSW 13 20 7 11 1016.9 1017.0 0.0
19/12:00pm 13.5 8.5 6.4 62 3.4 W 22 39 12 21 1017.0 1017.1 0.0
19/11:30am 13.8 9.6 5.7 58 3.8 W 17 28 9 15 1017.1 1017.2 0.0
19/11:00am 14.2 8.4 4.2 51 4.6 WSW 24 43 13 23 1016.9 1017.0 0.0
19/10:47am 14.2 7.8 5.0 54 4.3 WSW 28 46 15 25 1017.0 1017.1 0.0
19/10:30am 13.8 7.4 5.4 57 4.0 WSW 28 41 15 22 1017.3 1017.4 0.0
19/10:00am 12.2 7.6 6.5 68 2.7 W 20 32 11 17 1017.2 1017.3 0.0
19/09:30am 11.8 6.8 6.5 70 2.5 W 22 30 12 16 1017.0 1017.1 0.0
19/09:00am 11.8 7.9 5.4 65 3.0 WSW 15 24 8 13 1016.9 1017.0 2.6
19/08:30am 11.4 8.0 6.1 70 2.5 WSW 13 20 7 11 1016.7 1016.8 2.6
19/08:00am 10.9 7.5 6.1 72 2.2 W 13 24 7 13 1016.3 1016.4 2.6
19/07:30am 10.8 6.0 5.8 71 2.3 W 20 35 11 19 1015.9 1016.1 2.6
19/07:00am 10.6 5.8 5.6 71 2.3 W 20 32 11 17 1015.9 1016.1 2.6
19/06:30am 10.4 5.8 5.6 72 2.2 W 19 35 10 19 1015.7 1015.9 2.6
19/06:00am 10.0 6.2 5.8 75 1.9 W 15 24 8 13 1015.3 1015.5 2.6
19/05:30am 10.1 5.2 5.3 72 2.2 W 20 28 11 15 1015.1 1015.3 2.6
19/05:00am 9.7 5.1 6.4 80 1.5 WNW 20 28 11 15 1015.0 1015.2 2.6
19/04:30am 9.8 5.1 6.0 77 1.8 WNW 20 30 11 16 1014.7 1014.9 2.6
19/04:00am 10.2 4.5 5.0 70 2.4 W 24 37 13 20 1014.7 1014.9 2.4
19/03:30am 10.0 4.8 5.4 73 2.1 W 22 43 12 23 1014.5 1014.7 2.4
19/03:00am 9.8 5.3 6.0 77 1.8 W 19 26 10 14 1014.7 1014.9 2.4
19/02:30am 9.9 5.4 5.9 76 1.8 WNW 19 24 10 13 1014.4 1014.6 2.4
19/02:00am 10.0 5.8 5.6 74 2.0 W 17 26 9 14 1014.6 1014.8 2.0
19/01:30am 9.9 5.2 5.1 72 2.2 W 19 32 10 17 1014.7 1014.9 2.0
19/01:00am 9.9 4.6 5.1 72 2.2 W 22 39 12 21 1014.8 1015.0 2.0
19/12:30am 9.5 5.2 5.3 75 1.9 NW 17 24 9 13 1014.9 1015.1 2.0
19/12:00am 9.3 4.6 5.3 76 1.8 NW 19 24 10 13 1015.0 1015.2 2.0
 
Date/Time
EST
Temp
°C
App
Temp
°C
Dew
Point
Rel
Hum
%
Delta-T
°C
Wind Press
QNH
hPa
Press
MSL
hPa
Rain
since 9 am
mm
Dir
 
Spd
km/h
Gust
km/h
Spd
kts
Gust
kts
18/11:30pm 9.3 4.9 4.9 74 2.0 WNW 17 32 9 17 1015.5 1015.7 1.8
18/11:00pm 9.1 3.7 4.5 73 2.0 WNW 22 33 12 18 1015.7 1015.9 1.8
18/10:30pm 8.8 3.8 3.6 70 2.3 WNW 19 35 10 19 1016.0 1016.2 1.8
18/10:00pm 9.0 4.0 3.6 69 2.3 W 19 26 10 14 1016.4 1016.5 1.8
18/09:30pm 8.3 4.6 4.5 77 1.7 W 13 22 7 12 1016.7 1016.8 1.8
18/09:00pm 8.7 3.9 4.5 75 1.9 W 19 24 10 13 1017.1 1017.2 1.8
18/08:30pm 8.8 4.0 4.6 75 1.9 W 19 26 10 14 1017.2 1017.3 1.8
18/08:00pm 8.9 4.5 4.5 74 1.9 W 17 28 9 15 1017.1 1017.2 1.8
18/07:30pm 8.7 4.2 4.3 74 1.9 W 17 28 9 15 1016.8 1016.9 1.8
18/07:00pm 8.4 3.1 4.8 78 1.6 W 22 28 12 15 1016.8 1016.9 1.8
18/06:30pm 10.0 5.4 3.5 64 2.8 WSW 17 26 9 14 1016.7 1016.8 1.8
18/06:00pm 10.3 4.3 3.1 61 3.1 W 24 35 13 19 1016.2 1016.3 1.8
18/05:30pm 10.1 4.9 3.4 63 2.9 W 20 32 11 17 1016.0 1016.2 1.8
18/05:00pm 9.7 4.9 4.5 70 2.3 WSW 19 28 10 15 1015.7 1015.9 1.8
18/04:30pm 9.5 4.2 4.9 73 2.1 WSW 22 30 12 16 1015.7 1015.9 1.8
18/04:16pm 10.0 3.6 5.2 72 2.2 WSW 28 41 15 22 1015.4 1015.6 1.6
18/04:00pm 11.4 8.6 7.1 75 2.1 WSW 11 17 6 9 1015.2 1015.4 1.6
18/03:30pm 9.3 5.5 6.0 80 1.5 WSW 15 26 8 14 1015.7 1015.9 1.4
18/03:00pm 9.4 6.4 5.8 78 1.7 WSW 11 28 6 15 1015.2 1015.4 1.0
18/02:30pm 10.1 4.7 4.5 68 2.5 W 22 41 12 22 1015.1 1015.3 0.0
18/02:00pm 12.7 6.7 3.6 54 4.1 W 24 43 13 23 1014.6 1014.8 0.0
18/01:37pm 12.2 5.5 3.7 56 3.8 W 28 46 15 25 1014.8 1015.0 0.0
18/01:30pm 12.3 5.5 3.0 53 4.1 W 28 35 15 19 1014.8 1015.0 0.0
18/01:00pm 12.0 4.8 3.0 54 4.0 WSW 30 54 16 29 1014.8 1015.0 0.0
18/12:30pm 12.0 5.2 3.3 55 3.9 W 28 50 15 27 1015.2 1015.4 0.0
18/12:15pm 12.4 5.7 3.9 56 3.8 WSW 28 46 15 25 1015.1 1015.3 0.0
18/12:00pm 12.0 6.1 4.0 58 3.6 W 24 37 13 20 1015.4 1015.6 0.0
18/11:38am 12.5 5.4 3.5 54 4.0 WSW 30 50 16 27 1015.7 1015.9 0.0
18/11:30am 12.9 7.0 4.1 55 4.0 WSW 24 44 13 24 1015.7 1015.9 0.0
18/11:00am 12.2 9.4 3.4 55 3.9 W 7 11 4 6 1016.3 1016.4 0.0
18/10:30am 11.5 6.4 3.3 57 3.6 SW 19 30 10 16 1016.5 1016.6 0.0
18/10:00am 11.9 7.6 5.3 64 3.1 W 17 30 9 16 1016.5 1016.6 0.0
18/09:30am 10.3 5.6 2.9 60 3.2 WSW 17 28 9 15 1016.4 1016.5 0.0
18/09:00am 8.6 3.8 2.8 67 2.5 W 17 22 9 12 1016.5 1016.6 0.6
18/08:30am 9.5 6.1 3.9 68 2.5 W 11 17 6 9 1016.0 1016.2 0.6
18/08:00am 8.2 4.7 3.5 72 2.0 WNW 11 17 6 9 1016.0 1016.2 0.6

Other Formats:

Comma delimited format used in spreadsheet applications
http://www.bom.gov.au/fwo/IDT60801/IDT60801.94957.axf

JavaScript Object Notation format (JSON) in row-major order
http://www.bom.gov.au/fwo/IDT60801/IDT60801.94957.json